sensor_id;sensor_type;location;lat;lon;timestamp;temperature;humidity
64855;DHT22;51321;50.428;8.378;2023-05-07T00:01:03;14.90;99.90
64855;DHT22;51321;50.428;8.378;2023-05-07T00:03:45;14.80;99.90
64855;DHT22;51321;50.428;8.378;2023-05-07T00:06:26;14.80;99.90
64855;DHT22;51321;50.428;8.378;2023-05-07T00:09:10;14.90;99.90
64855;DHT22;51321;50.428;8.378;2023-05-07T00:11:50;14.90;99.90
64855;DHT22;51321;50.428;8.378;2023-05-07T00:14:32;14.90;99.90
64855;DHT22;51321;50.428;8.378;2023-05-07T00:17:12;14.90;99.90
64855;DHT22;51321;50.428;8.378;2023-05-07T00:19:53;14.80;99.90
64855;DHT22;51321;50.428;8.378;2023-05-07T00:22:35;14.90;99.90
64855;DHT22;51321;50.428;8.378;2023-05-07T00:25:18;14.80;99.90
64855;DHT22;51321;50.428;8.378;2023-05-07T00:27:58;14.80;99.90
64855;DHT22;51321;50.428;8.378;2023-05-07T00:30:43;14.70;99.90
64855;DHT22;51321;50.428;8.378;2023-05-07T00:33:23;15.00;99.90
64855;DHT22;51321;50.428;8.378;2023-05-07T00:36:06;15.00;99.90
64855;DHT22;51321;50.428;8.378;2023-05-07T00:38:46;14.80;99.90
64855;DHT22;51321;50.428;8.378;2023-05-07T00:41:29;14.90;99.90
64855;DHT22;51321;50.428;8.378;2023-05-07T00:44:10;14.90;99.90
64855;DHT22;51321;50.428;8.378;2023-05-07T00:46:50;14.80;99.90
64855;DHT22;51321;50.428;8.378;2023-05-07T00:49:34;14.70;99.90
64855;DHT22;51321;50.428;8.378;2023-05-07T00:52:16;14.70;99.90
64855;DHT22;51321;50.428;8.378;2023-05-07T00:54:57;14.70;99.90
64855;DHT22;51321;50.428;8.378;2023-05-07T00:57:42;14.70;99.90
64855;DHT22;51321;50.428;8.378;2023-05-07T01:00:24;14.90;99.90
64855;DHT22;51321;50.428;8.378;2023-05-07T01:03:05;14.80;99.90
64855;DHT22;51321;50.428;8.378;2023-05-07T01:05:45;14.80;99.90
64855;DHT22;51321;50.428;8.378;2023-05-07T01:08:26;14.70;99.90
64855;DHT22;51321;50.428;8.378;2023-05-07T01:11:08;14.70;99.90
64855;DHT22;51321;50.428;8.378;2023-05-07T01:13:51;14.70;99.90
64855;DHT22;51321;50.428;8.378;2023-05-07T01:16:32;14.70;99.90
64855;DHT22;51321;50.428;8.378;2023-05-07T01:19:13;14.70;99.90
64855;DHT22;51321;50.428;8.378;2023-05-07T01:21:57;14.70;99.90
64855;DHT22;51321;50.428;8.378;2023-05-07T01:24:43;14.80;99.90
64855;DHT22;51321;50.428;8.378;2023-05-07T01:27:25;14.80;99.90
64855;DHT22;51321;50.428;8.378;2023-05-07T01:30:07;15.00;99.90
64855;DHT22;51321;50.428;8.378;2023-05-07T01:32:49;14.90;99.90
64855;DHT22;51321;50.428;8.378;2023-05-07T01:35:32;14.90;99.90
64855;DHT22;51321;50.428;8.378;2023-05-07T01:38:14;14.90;99.90
64855;DHT22;51321;50.428;8.378;2023-05-07T01:40:57;14.90;99.90
64855;DHT22;51321;50.428;8.378;2023-05-07T01:43:38;15.00;99.90
64855;DHT22;51321;50.428;8.378;2023-05-07T01:46:20;15.00;99.90
64855;DHT22;51321;50.428;8.378;2023-05-07T01:49:01;15.00;99.90
64855;DHT22;51321;50.428;8.378;2023-05-07T01:51:42;15.00;99.90
64855;DHT22;51321;50.428;8.378;2023-05-07T01:54:25;15.00;99.90
64855;DHT22;51321;50.428;8.378;2023-05-07T01:57:08;15.10;99.90
64855;DHT22;51321;50.428;8.378;2023-05-07T01:59:49;15.00;99.90
64855;DHT22;51321;50.428;8.378;2023-05-07T02:02:31;15.00;99.90
64855;DHT22;51321;50.428;8.378;2023-05-07T02:05:11;14.90;99.90
64855;DHT22;51321;50.428;8.378;2023-05-07T02:07:53;14.90;99.90
64855;DHT22;51321;50.428;8.378;2023-05-07T02:10:34;14.90;99.90
64855;DHT22;51321;50.428;8.378;2023-05-07T02:13:19;14.90;99.90
64855;DHT22;51321;50.428;8.378;2023-05-07T02:16:01;14.90;99.90
64855;DHT22;51321;50.428;8.378;2023-05-07T02:18:42;14.90;99.90
64855;DHT22;51321;50.428;8.378;2023-05-07T02:21:23;14.80;99.90
64855;DHT22;51321;50.428;8.378;2023-05-07T02:24:04;14.90;99.90
64855;DHT22;51321;50.428;8.378;2023-05-07T02:26:45;14.80;99.90
64855;DHT22;51321;50.428;8.378;2023-05-07T02:29:27;14.80;99.90
64855;DHT22;51321;50.428;8.378;2023-05-07T02:32:08;14.80;99.90
64855;DHT22;51321;50.428;8.378;2023-05-07T02:34:50;14.70;99.90
64855;DHT22;51321;50.428;8.378;2023-05-07T02:37:33;14.70;99.90
64855;DHT22;51321;50.428;8.378;2023-05-07T02:40:14;14.80;99.90
64855;DHT22;51321;50.428;8.378;2023-05-07T02:42:54;14.70;99.90
64855;DHT22;51321;50.428;8.378;2023-05-07T02:45:37;14.80;99.90
64855;DHT22;51321;50.428;8.378;2023-05-07T02:48:19;14.90;99.90
64855;DHT22;51321;50.428;8.378;2023-05-07T02:51:00;14.80;99.90
64855;DHT22;51321;50.428;8.378;2023-05-07T02:53:41;14.70;99.90
64855;DHT22;51321;50.428;8.378;2023-05-07T02:56:21;14.60;99.90
64855;DHT22;51321;50.428;8.378;2023-05-07T02:59:06;14.70;99.90
64855;DHT22;51321;50.428;8.378;2023-05-07T03:02:11;14.70;99.90
64855;DHT22;51321;50.428;8.378;2023-05-07T03:04:52;14.60;99.90
64855;DHT22;51321;50.428;8.378;2023-05-07T03:07:33;14.60;99.90
64855;DHT22;51321;50.428;8.378;2023-05-07T03:10:14;14.70;99.90
64855;DHT22;51321;50.428;8.378;2023-05-07T03:12:55;14.60;99.90
64855;DHT22;51321;50.428;8.378;2023-05-07T03:15:38;14.60;99.90
64855;DHT22;51321;50.428;8.378;2023-05-07T03:18:20;14.70;99.90
64855;DHT22;51321;50.428;8.378;2023-05-07T03:21:00;14.70;99.90
64855;DHT22;51321;50.428;8.378;2023-05-07T03:23:41;14.70;99.90
64855;DHT22;51321;50.428;8.378;2023-05-07T03:26:22;14.70;99.90
64855;DHT22;51321;50.428;8.378;2023-05-07T03:29:02;14.70;99.90
64855;DHT22;51321;50.428;8.378;2023-05-07T03:31:43;14.60;99.90
64855;DHT22;51321;50.428;8.378;2023-05-07T03:34:26;14.50;99.90
64855;DHT22;51321;50.428;8.378;2023-05-07T03:37:07;14.50;99.90
64855;DHT22;51321;50.428;8.378;2023-05-07T03:39:48;14.50;99.90
64855;DHT22;51321;50.428;8.378;2023-05-07T03:42:29;14.40;99.90
64855;DHT22;51321;50.428;8.378;2023-05-07T03:45:10;14.40;99.90
64855;DHT22;51321;50.428;8.378;2023-05-07T03:47:55;14.50;99.90
64855;DHT22;51321;50.428;8.378;2023-05-07T03:50:39;14.50;99.90
64855;DHT22;51321;50.428;8.378;2023-05-07T03:53:20;14.30;99.90
64855;DHT22;51321;50.428;8.378;2023-05-07T03:56:01;14.30;99.90
64855;DHT22;51321;50.428;8.378;2023-05-07T03:58:47;14.30;99.90
64855;DHT22;51321;50.428;8.378;2023-05-07T04:01:29;14.20;99.90
64855;DHT22;51321;50.428;8.378;2023-05-07T04:04:10;14.10;99.90
64855;DHT22;51321;50.428;8.378;2023-05-07T04:06:52;14.20;99.90
64855;DHT22;51321;50.428;8.378;2023-05-07T04:09:34;14.40;99.90
64855;DHT22;51321;50.428;8.378;2023-05-07T04:12:15;14.30;99.90
64855;DHT22;51321;50.428;8.378;2023-05-07T04:14:58;14.30;99.90
64855;DHT22;51321;50.428;8.378;2023-05-07T04:17:38;14.30;99.90
64855;DHT22;51321;50.428;8.378;2023-05-07T04:20:21;14.20;99.90
64855;DHT22;51321;50.428;8.378;2023-05-07T04:23:10;14.10;99.90
64855;DHT22;51321;50.428;8.378;2023-05-07T04:25:51;14.20;99.90
64855;DHT22;51321;50.428;8.378;2023-05-07T04:28:47;14.10;99.90
64855;DHT22;51321;50.428;8.378;2023-05-07T04:31:28;14.10;99.90
64855;DHT22;51321;50.428;8.378;2023-05-07T04:34:10;14.10;99.90
64855;DHT22;51321;50.428;8.378;2023-05-07T04:36:50;14.10;99.90
64855;DHT22;51321;50.428;8.378;2023-05-07T04:39:33;14.20;99.90
64855;DHT22;51321;50.428;8.378;2023-05-07T04:42:15;14.20;99.90
64855;DHT22;51321;50.428;8.378;2023-05-07T04:45:01;14.20;99.90
64855;DHT22;51321;50.428;8.378;2023-05-07T04:47:45;14.10;99.90
64855;DHT22;51321;50.428;8.378;2023-05-07T04:50:26;14.10;99.90
64855;DHT22;51321;50.428;8.378;2023-05-07T04:53:11;14.40;99.90
64855;DHT22;51321;50.428;8.378;2023-05-07T04:55:56;14.40;99.90
64855;DHT22;51321;50.428;8.378;2023-05-07T04:58:38;14.40;99.90
64855;DHT22;51321;50.428;8.378;2023-05-07T05:01:20;14.50;99.90
64855;DHT22;51321;50.428;8.378;2023-05-07T05:04:02;14.50;99.90
64855;DHT22;51321;50.428;8.378;2023-05-07T05:06:42;14.60;99.90
64855;DHT22;51321;50.428;8.378;2023-05-07T05:09:25;14.60;99.90
64855;DHT22;51321;50.428;8.378;2023-05-07T05:12:07;14.60;99.90
64855;DHT22;51321;50.428;8.378;2023-05-07T05:14:50;14.60;99.90
64855;DHT22;51321;50.428;8.378;2023-05-07T05:17:31;14.70;99.90
64855;DHT22;51321;50.428;8.378;2023-05-07T05:20:13;14.70;99.90
64855;DHT22;51321;50.428;8.378;2023-05-07T05:22:54;14.80;99.90
64855;DHT22;51321;50.428;8.378;2023-05-07T05:25:35;14.70;99.90
64855;DHT22;51321;50.428;8.378;2023-05-07T05:28:18;14.70;99.90
64855;DHT22;51321;50.428;8.378;2023-05-07T05:31:00;14.70;99.90
64855;DHT22;51321;50.428;8.378;2023-05-07T05:33:45;14.80;99.90
64855;DHT22;51321;50.428;8.378;2023-05-07T05:36:25;14.80;99.90
64855;DHT22;51321;50.428;8.378;2023-05-07T05:39:09;14.80;99.90
64855;DHT22;51321;50.428;8.378;2023-05-07T05:41:50;14.90;99.90
64855;DHT22;51321;50.428;8.378;2023-05-07T05:44:32;14.80;99.90
64855;DHT22;51321;50.428;8.378;2023-05-07T05:47:13;14.90;99.90
64855;DHT22;51321;50.428;8.378;2023-05-07T05:49:54;14.90;99.90
64855;DHT22;51321;50.428;8.378;2023-05-07T05:52:36;14.90;99.90
64855;DHT22;51321;50.428;8.378;2023-05-07T05:55:17;14.90;99.90
64855;DHT22;51321;50.428;8.378;2023-05-07T05:58:01;14.90;99.90
64855;DHT22;51321;50.428;8.378;2023-05-07T06:00:45;14.90;99.90
64855;DHT22;51321;50.428;8.378;2023-05-07T06:03:28;14.90;99.90
64855;DHT22;51321;50.428;8.378;2023-05-07T06:06:12;14.90;99.90
64855;DHT22;51321;50.428;8.378;2023-05-07T06:08:54;14.90;99.90
64855;DHT22;51321;50.428;8.378;2023-05-07T06:11:42;15.00;99.90
64855;DHT22;51321;50.428;8.378;2023-05-07T06:14:24;15.10;99.90
64855;DHT22;51321;50.428;8.378;2023-05-07T06:17:06;15.30;99.90
64855;DHT22;51321;50.428;8.378;2023-05-07T06:19:47;15.40;99.90
64855;DHT22;51321;50.428;8.378;2023-05-07T06:22:31;15.50;99.90
64855;DHT22;51321;50.428;8.378;2023-05-07T06:25:14;15.60;99.90
64855;DHT22;51321;50.428;8.378;2023-05-07T06:27:56;15.80;99.90
64855;DHT22;51321;50.428;8.378;2023-05-07T06:30:38;15.80;99.90
64855;DHT22;51321;50.428;8.378;2023-05-07T06:33:22;15.60;99.90
64855;DHT22;51321;50.428;8.378;2023-05-07T06:36:05;15.60;99.90
64855;DHT22;51321;50.428;8.378;2023-05-07T06:38:48;15.70;99.90
64855;DHT22;51321;50.428;8.378;2023-05-07T06:41:29;15.60;99.90
64855;DHT22;51321;50.428;8.378;2023-05-07T06:44:14;15.70;99.90
64855;DHT22;51321;50.428;8.378;2023-05-07T06:46:59;15.80;99.90
64855;DHT22;51321;50.428;8.378;2023-05-07T06:49:42;15.90;99.90
64855;DHT22;51321;50.428;8.378;2023-05-07T06:52:24;16.10;99.90
64855;DHT22;51321;50.428;8.378;2023-05-07T06:55:06;16.10;99.90
64855;DHT22;51321;50.428;8.378;2023-05-07T06:57:47;16.20;99.90
64855;DHT22;51321;50.428;8.378;2023-05-07T07:00:28;16.40;99.90
64855;DHT22;51321;50.428;8.378;2023-05-07T07:03:10;16.50;99.90
64855;DHT22;51321;50.428;8.378;2023-05-07T07:05:53;16.50;99.90
64855;DHT22;51321;50.428;8.378;2023-05-07T07:08:34;16.50;99.90
64855;DHT22;51321;50.428;8.378;2023-05-07T07:11:15;16.50;99.90
64855;DHT22;51321;50.428;8.378;2023-05-07T07:13:56;16.50;99.90
64855;DHT22;51321;50.428;8.378;2023-05-07T07:16:38;16.70;99.90
64855;DHT22;51321;50.428;8.378;2023-05-07T07:19:19;16.60;99.90
64855;DHT22;51321;50.428;8.378;2023-05-07T07:22:04;16.70;99.90
64855;DHT22;51321;50.428;8.378;2023-05-07T07:24:47;16.80;99.90
64855;DHT22;51321;50.428;8.378;2023-05-07T07:27:29;17.00;99.90
64855;DHT22;51321;50.428;8.378;2023-05-07T07:30:10;16.90;99.90
64855;DHT22;51321;50.428;8.378;2023-05-07T07:32:53;16.80;99.90
64855;DHT22;51321;50.428;8.378;2023-05-07T07:35:34;16.80;99.90
64855;DHT22;51321;50.428;8.378;2023-05-07T07:38:19;16.90;99.90
64855;DHT22;51321;50.428;8.378;2023-05-07T07:41:00;16.90;99.90
64855;DHT22;51321;50.428;8.378;2023-05-07T07:43:44;17.00;99.90
64855;DHT22;51321;50.428;8.378;2023-05-07T07:46:26;17.00;99.90
64855;DHT22;51321;50.428;8.378;2023-05-07T07:49:07;17.00;99.90
64855;DHT22;51321;50.428;8.378;2023-05-07T07:51:48;17.10;99.90
64855;DHT22;51321;50.428;8.378;2023-05-07T07:54:31;17.10;99.90
64855;DHT22;51321;50.428;8.378;2023-05-07T07:57:12;17.20;99.90
64855;DHT22;51321;50.428;8.378;2023-05-07T07:59:54;17.10;99.90
64855;DHT22;51321;50.428;8.378;2023-05-07T08:02:35;17.10;99.90
64855;DHT22;51321;50.428;8.378;2023-05-07T08:05:16;17.30;99.90
64855;DHT22;51321;50.428;8.378;2023-05-07T08:07:57;17.30;99.90
64855;DHT22;51321;50.428;8.378;2023-05-07T08:10:44;17.30;99.90
64855;DHT22;51321;50.428;8.378;2023-05-07T08:13:33;17.40;99.90
64855;DHT22;51321;50.428;8.378;2023-05-07T08:16:15;17.80;99.90
64855;DHT22;51321;50.428;8.378;2023-05-07T08:18:56;18.00;99.90
64855;DHT22;51321;50.428;8.378;2023-05-07T08:21:38;18.20;99.90
64855;DHT22;51321;50.428;8.378;2023-05-07T08:24:22;18.50;99.90
64855;DHT22;51321;50.428;8.378;2023-05-07T08:27:06;18.60;99.90
64855;DHT22;51321;50.428;8.378;2023-05-07T08:29:49;18.60;99.90
64855;DHT22;51321;50.428;8.378;2023-05-07T08:32:32;18.80;99.90
64855;DHT22;51321;50.428;8.378;2023-05-07T08:35:57;18.80;99.90
64855;DHT22;51321;50.428;8.378;2023-05-07T08:38:38;19.00;99.90
64855;DHT22;51321;50.428;8.378;2023-05-07T08:41:20;19.00;99.90
64855;DHT22;51321;50.428;8.378;2023-05-07T08:44:03;18.90;99.90
64855;DHT22;51321;50.428;8.378;2023-05-07T08:46:48;18.90;99.90
64855;DHT22;51321;50.428;8.378;2023-05-07T08:49:34;19.00;99.90
64855;DHT22;51321;50.428;8.378;2023-05-07T08:52:21;18.90;99.90
64855;DHT22;51321;50.428;8.378;2023-05-07T08:55:03;19.10;99.90
64855;DHT22;51321;50.428;8.378;2023-05-07T08:57:44;19.00;99.90
64855;DHT22;51321;50.428;8.378;2023-05-07T09:00:28;19.10;99.90
64855;DHT22;51321;50.428;8.378;2023-05-07T09:03:10;19.20;99.90
64855;DHT22;51321;50.428;8.378;2023-05-07T09:05:55;19.20;99.90
64855;DHT22;51321;50.428;8.378;2023-05-07T09:08:39;19.30;99.90
64855;DHT22;51321;50.428;8.378;2023-05-07T09:11:22;19.80;99.90
64855;DHT22;51321;50.428;8.378;2023-05-07T09:14:04;20.10;99.90
64855;DHT22;51321;50.428;8.378;2023-05-07T09:16:52;20.30;99.90
64855;DHT22;51321;50.428;8.378;2023-05-07T09:19:33;20.00;99.90
64855;DHT22;51321;50.428;8.378;2023-05-07T09:22:17;20.20;99.90
64855;DHT22;51321;50.428;8.378;2023-05-07T09:25:11;19.90;99.90
64855;DHT22;51321;50.428;8.378;2023-05-07T09:27:52;19.70;99.90
64855;DHT22;51321;50.428;8.378;2023-05-07T09:30:34;19.60;99.90
64855;DHT22;51321;50.428;8.378;2023-05-07T09:33:17;19.70;99.90
64855;DHT22;51321;50.428;8.378;2023-05-07T09:36:03;19.50;99.90
64855;DHT22;51321;50.428;8.378;2023-05-07T09:38:45;19.70;99.90
64855;DHT22;51321;50.428;8.378;2023-05-07T09:41:30;19.80;99.90
64855;DHT22;51321;50.428;8.378;2023-05-07T09:44:24;19.90;99.90
64855;DHT22;51321;50.428;8.378;2023-05-07T09:47:07;19.80;99.90
64855;DHT22;51321;50.428;8.378;2023-05-07T09:49:56;19.90;99.90
64855;DHT22;51321;50.428;8.378;2023-05-07T09:52:38;19.90;99.90
64855;DHT22;51321;50.428;8.378;2023-05-07T09:55:22;20.10;99.90
64855;DHT22;51321;50.428;8.378;2023-05-07T09:58:06;20.40;99.90
64855;DHT22;51321;50.428;8.378;2023-05-07T10:00:49;20.60;99.90
64855;DHT22;51321;50.428;8.378;2023-05-07T10:03:32;20.80;99.90
64855;DHT22;51321;50.428;8.378;2023-05-07T10:06:18;20.90;99.90
64855;DHT22;51321;50.428;8.378;2023-05-07T10:09:00;21.20;99.90
64855;DHT22;51321;50.428;8.378;2023-05-07T10:11:41;21.10;99.90
64855;DHT22;51321;50.428;8.378;2023-05-07T10:14:25;21.00;99.90
64855;DHT22;51321;50.428;8.378;2023-05-07T10:17:08;20.80;99.90
64855;DHT22;51321;50.428;8.378;2023-05-07T10:19:54;20.70;99.90
64855;DHT22;51321;50.428;8.378;2023-05-07T10:22:38;20.70;99.90
64855;DHT22;51321;50.428;8.378;2023-05-07T10:25:30;20.80;99.90
64855;DHT22;51321;50.428;8.378;2023-05-07T10:28:18;20.50;99.90
64855;DHT22;51321;50.428;8.378;2023-05-07T10:31:15;20.40;99.90
64855;DHT22;51321;50.428;8.378;2023-05-07T10:34:01;20.20;99.90
64855;DHT22;51321;50.428;8.378;2023-05-07T10:36:43;20.50;99.90
64855;DHT22;51321;50.428;8.378;2023-05-07T10:39:26;20.80;99.90
64855;DHT22;51321;50.428;8.378;2023-05-07T10:42:08;21.10;99.90
64855;DHT22;51321;50.428;8.378;2023-05-07T10:44:50;21.20;99.90
64855;DHT22;51321;50.428;8.378;2023-05-07T10:48:05;21.10;99.90
64855;DHT22;51321;50.428;8.378;2023-05-07T10:50:46;21.00;99.90
64855;DHT22;51321;50.428;8.378;2023-05-07T10:53:28;21.00;99.90
64855;DHT22;51321;50.428;8.378;2023-05-07T10:56:26;21.00;99.90
64855;DHT22;51321;50.428;8.378;2023-05-07T10:59:34;20.90;99.90
64855;DHT22;51321;50.428;8.378;2023-05-07T11:03:07;20.80;99.90
64855;DHT22;51321;50.428;8.378;2023-05-07T11:06:13;20.90;99.90
64855;DHT22;51321;50.428;8.378;2023-05-07T11:09:11;20.90;99.90
64855;DHT22;51321;50.428;8.378;2023-05-07T11:12:03;21.20;99.90
64855;DHT22;51321;50.428;8.378;2023-05-07T11:14:53;21.10;99.90
64855;DHT22;51321;50.428;8.378;2023-05-07T11:17:52;21.20;99.90
64855;DHT22;51321;50.428;8.378;2023-05-07T11:20:47;21.40;99.90
64855;DHT22;51321;50.428;8.378;2023-05-07T11:24:01;21.20;99.90
64855;DHT22;51321;50.428;8.378;2023-05-07T11:26:50;21.10;99.90
64855;DHT22;51321;50.428;8.378;2023-05-07T11:29:34;21.00;99.90
64855;DHT22;51321;50.428;8.378;2023-05-07T11:32:22;21.00;99.90
64855;DHT22;51321;50.428;8.378;2023-05-07T11:35:06;21.20;99.90
64855;DHT22;51321;50.428;8.378;2023-05-07T11:37:49;21.50;99.90
64855;DHT22;51321;50.428;8.378;2023-05-07T11:40:31;21.90;99.90
64855;DHT22;51321;50.428;8.378;2023-05-07T11:43:12;22.40;99.90
64855;DHT22;51321;50.428;8.378;2023-05-07T11:45:54;22.50;99.90
64855;DHT22;51321;50.428;8.378;2023-05-07T11:48:35;22.40;99.90
64855;DHT22;51321;50.428;8.378;2023-05-07T11:51:19;22.00;99.90
64855;DHT22;51321;50.428;8.378;2023-05-07T11:54:03;22.00;99.90
64855;DHT22;51321;50.428;8.378;2023-05-07T11:56:48;21.90;99.90
64855;DHT22;51321;50.428;8.378;2023-05-07T11:59:29;22.00;99.90
64855;DHT22;51321;50.428;8.378;2023-05-07T12:02:10;21.70;99.90
64855;DHT22;51321;50.428;8.378;2023-05-07T12:04:52;21.50;99.90
64855;DHT22;51321;50.428;8.378;2023-05-07T12:07:35;21.40;99.90
64855;DHT22;51321;50.428;8.378;2023-05-07T12:10:17;21.40;99.80
64855;DHT22;51321;50.428;8.378;2023-05-07T12:13:00;21.40;99.90
64855;DHT22;51321;50.428;8.378;2023-05-07T12:15:41;21.30;99.90
64855;DHT22;51321;50.428;8.378;2023-05-07T12:18:24;21.30;99.90
64855;DHT22;51321;50.428;8.378;2023-05-07T12:21:07;21.50;99.90
64855;DHT22;51321;50.428;8.378;2023-05-07T12:23:48;21.70;99.90
64855;DHT22;51321;50.428;8.378;2023-05-07T12:26:30;21.50;99.90
64855;DHT22;51321;50.428;8.378;2023-05-07T12:29:12;21.60;99.90
64855;DHT22;51321;50.428;8.378;2023-05-07T12:31:53;21.50;99.70
64855;DHT22;51321;50.428;8.378;2023-05-07T12:34:34;21.60;99.90
64855;DHT22;51321;50.428;8.378;2023-05-07T12:37:15;21.60;99.70
64855;DHT22;51321;50.428;8.378;2023-05-07T12:40:07;21.80;99.10
64855;DHT22;51321;50.428;8.378;2023-05-07T12:42:53;21.90;99.40
64855;DHT22;51321;50.428;8.378;2023-05-07T12:45:38;22.10;98.70
64855;DHT22;51321;50.428;8.378;2023-05-07T12:48:20;22.10;99.70
64855;DHT22;51321;50.428;8.378;2023-05-07T12:51:02;22.00;99.00
64855;DHT22;51321;50.428;8.378;2023-05-07T12:53:44;22.00;98.30
64855;DHT22;51321;50.428;8.378;2023-05-07T12:56:25;21.80;98.80
64855;DHT22;51321;50.428;8.378;2023-05-07T12:59:07;21.80;98.10
64855;DHT22;51321;50.428;8.378;2023-05-07T13:01:49;21.90;99.20
64855;DHT22;51321;50.428;8.378;2023-05-07T13:04:30;22.10;99.00
64855;DHT22;51321;50.428;8.378;2023-05-07T13:07:10;22.30;97.40
64855;DHT22;51321;50.428;8.378;2023-05-07T13:09:51;22.50;98.50
64855;DHT22;51321;50.428;8.378;2023-05-07T13:12:32;22.50;97.60
64855;DHT22;51321;50.428;8.378;2023-05-07T13:15:15;22.50;97.10
64855;DHT22;51321;50.428;8.378;2023-05-07T13:17:56;22.30;97.20
64855;DHT22;51321;50.428;8.378;2023-05-07T13:20:37;22.10;98.10
64855;DHT22;51321;50.428;8.378;2023-05-07T13:23:18;22.20;97.80
64855;DHT22;51321;50.428;8.378;2023-05-07T13:25:59;22.50;96.90
64855;DHT22;51321;50.428;8.378;2023-05-07T13:28:40;22.80;96.70
64855;DHT22;51321;50.428;8.378;2023-05-07T13:31:22;23.00;97.20
64855;DHT22;51321;50.428;8.378;2023-05-07T13:34:04;23.00;96.70
64855;DHT22;51321;50.428;8.378;2023-05-07T13:36:45;22.90;96.60
64855;DHT22;51321;50.428;8.378;2023-05-07T13:39:26;23.00;97.90
64855;DHT22;51321;50.428;8.378;2023-05-07T13:42:07;23.00;95.50
64855;DHT22;51321;50.428;8.378;2023-05-07T13:44:48;23.20;95.90
64855;DHT22;51321;50.428;8.378;2023-05-07T13:47:31;23.00;95.40
64855;DHT22;51321;50.428;8.378;2023-05-07T13:50:12;23.00;96.30
64855;DHT22;51321;50.428;8.378;2023-05-07T13:52:54;23.20;95.70
64855;DHT22;51321;50.428;8.378;2023-05-07T13:55:36;23.50;95.30
64855;DHT22;51321;50.428;8.378;2023-05-07T13:58:18;23.40;95.70
64855;DHT22;51321;50.428;8.378;2023-05-07T14:00:59;23.00;95.80
64855;DHT22;51321;50.428;8.378;2023-05-07T14:03:42;22.70;95.80
64855;DHT22;51321;50.428;8.378;2023-05-07T14:06:24;22.50;96.20
64855;DHT22;51321;50.428;8.378;2023-05-07T14:09:07;22.40;96.80
64855;DHT22;51321;50.428;8.378;2023-05-07T14:11:48;22.50;97.20
64855;DHT22;51321;50.428;8.378;2023-05-07T14:14:30;22.30;97.20
64855;DHT22;51321;50.428;8.378;2023-05-07T14:17:11;22.40;96.70
64855;DHT22;51321;50.428;8.378;2023-05-07T14:19:54;22.20;97.10
64855;DHT22;51321;50.428;8.378;2023-05-07T14:22:34;22.00;97.10
64855;DHT22;51321;50.428;8.378;2023-05-07T14:25:15;21.80;97.90
64855;DHT22;51321;50.428;8.378;2023-05-07T14:28:01;21.70;97.30
64855;DHT22;51321;50.428;8.378;2023-05-07T14:30:44;21.70;97.20
64855;DHT22;51321;50.428;8.378;2023-05-07T14:33:25;21.60;97.00
64855;DHT22;51321;50.428;8.378;2023-05-07T14:36:07;21.60;97.10
64855;DHT22;51321;50.428;8.378;2023-05-07T14:38:49;21.50;97.30
64855;DHT22;51321;50.428;8.378;2023-05-07T14:41:29;21.50;97.00
64855;DHT22;51321;50.428;8.378;2023-05-07T14:44:10;21.40;97.50
64855;DHT22;51321;50.428;8.378;2023-05-07T14:46:51;21.40;97.90
64855;DHT22;51321;50.428;8.378;2023-05-07T14:49:34;21.40;97.50
64855;DHT22;51321;50.428;8.378;2023-05-07T14:52:16;21.40;97.70
64855;DHT22;51321;50.428;8.378;2023-05-07T14:54:57;21.40;99.30
64855;DHT22;51321;50.428;8.378;2023-05-07T14:57:39;21.30;99.20
64855;DHT22;51321;50.428;8.378;2023-05-07T15:00:20;21.20;99.90
64855;DHT22;51321;50.428;8.378;2023-05-07T15:03:06;21.10;99.90
64855;DHT22;51321;50.428;8.378;2023-05-07T15:05:46;21.00;99.90
64855;DHT22;51321;50.428;8.378;2023-05-07T15:08:31;21.10;99.90
64855;DHT22;51321;50.428;8.378;2023-05-07T15:11:12;21.00;99.90
64855;DHT22;51321;50.428;8.378;2023-05-07T15:13:54;20.90;99.90
64855;DHT22;51321;50.428;8.378;2023-05-07T15:16:35;20.90;99.90
64855;DHT22;51321;50.428;8.378;2023-05-07T15:19:16;20.80;99.90
64855;DHT22;51321;50.428;8.378;2023-05-07T15:21:57;20.60;99.90
64855;DHT22;51321;50.428;8.378;2023-05-07T15:24:41;20.60;99.90
64855;DHT22;51321;50.428;8.378;2023-05-07T15:27:23;20.40;99.90
64855;DHT22;51321;50.428;8.378;2023-05-07T15:30:06;20.30;99.90
64855;DHT22;51321;50.428;8.378;2023-05-07T15:32:51;20.20;99.90
64855;DHT22;51321;50.428;8.378;2023-05-07T15:35:32;20.20;99.90
64855;DHT22;51321;50.428;8.378;2023-05-07T15:38:14;20.30;99.90
64855;DHT22;51321;50.428;8.378;2023-05-07T15:40:56;20.40;99.90
64855;DHT22;51321;50.428;8.378;2023-05-07T15:43:43;20.40;99.90
64855;DHT22;51321;50.428;8.378;2023-05-07T15:46:25;20.40;99.90
64855;DHT22;51321;50.428;8.378;2023-05-07T15:49:06;20.50;99.90
64855;DHT22;51321;50.428;8.378;2023-05-07T15:51:48;20.80;99.90
64855;DHT22;51321;50.428;8.378;2023-05-07T15:54:30;20.80;99.90
64855;DHT22;51321;50.428;8.378;2023-05-07T15:57:13;20.80;99.90
64855;DHT22;51321;50.428;8.378;2023-05-07T15:59:53;20.70;99.90
64855;DHT22;51321;50.428;8.378;2023-05-07T16:02:34;20.50;99.90
64855;DHT22;51321;50.428;8.378;2023-05-07T16:05:17;20.50;99.90
64855;DHT22;51321;50.428;8.378;2023-05-07T16:07:58;20.50;99.90
64855;DHT22;51321;50.428;8.378;2023-05-07T16:10:39;20.60;99.90
64855;DHT22;51321;50.428;8.378;2023-05-07T16:13:22;20.80;99.90
64855;DHT22;51321;50.428;8.378;2023-05-07T16:16:04;20.80;99.90
64855;DHT22;51321;50.428;8.378;2023-05-07T16:18:47;20.90;99.90
64855;DHT22;51321;50.428;8.378;2023-05-07T16:21:28;21.00;99.90
64855;DHT22;51321;50.428;8.378;2023-05-07T16:24:09;21.10;99.90
64855;DHT22;51321;50.428;8.378;2023-05-07T16:26:50;21.00;99.90
64855;DHT22;51321;50.428;8.378;2023-05-07T16:29:33;21.00;99.90
64855;DHT22;51321;50.428;8.378;2023-05-07T16:32:14;21.00;99.90
64855;DHT22;51321;50.428;8.378;2023-05-07T16:34:55;21.00;99.90
64855;DHT22;51321;50.428;8.378;2023-05-07T16:37:39;21.00;99.90
64855;DHT22;51321;50.428;8.378;2023-05-07T16:40:20;21.00;99.90
64855;DHT22;51321;50.428;8.378;2023-05-07T16:43:01;20.90;99.90
64855;DHT22;51321;50.428;8.378;2023-05-07T16:45:45;20.90;99.90
64855;DHT22;51321;50.428;8.378;2023-05-07T16:48:27;20.70;99.90
64855;DHT22;51321;50.428;8.378;2023-05-07T16:51:08;20.70;99.90
64855;DHT22;51321;50.428;8.378;2023-05-07T16:53:49;20.60;99.90
64855;DHT22;51321;50.428;8.378;2023-05-07T16:56:30;20.60;99.90
64855;DHT22;51321;50.428;8.378;2023-05-07T16:59:11;20.60;99.90
64855;DHT22;51321;50.428;8.378;2023-05-07T17:01:53;20.70;99.90
64855;DHT22;51321;50.428;8.378;2023-05-07T17:04:34;20.60;99.90
64855;DHT22;51321;50.428;8.378;2023-05-07T17:07:15;20.50;99.90
64855;DHT22;51321;50.428;8.378;2023-05-07T17:09:57;20.50;99.90